sensor_id;sensor_type;location;lat;lon;timestamp;pressure;altitude;pressure_sealevel;temperature;humidity
9822;BME280;4950;46.042;14.472;2023-05-14T00:02:10;97987.50;;;13.33;91.01
9822;BME280;4950;46.042;14.472;2023-05-14T00:04:36;97995.50;;;13.31;91.09
9822;BME280;4950;46.042;14.472;2023-05-14T00:07:03;97993.63;;;13.25;91.44
9822;BME280;4950;46.042;14.472;2023-05-14T00:09:31;97984.81;;;13.26;91.02
9822;BME280;4950;46.042;14.472;2023-05-14T00:11:59;97989.03;;;13.27;91.13
9822;BME280;4950;46.042;14.472;2023-05-14T00:14:26;97987.03;;;13.29;91.53
9822;BME280;4950;46.042;14.472;2023-05-14T00:16:53;97984.88;;;13.33;90.95
9822;BME280;4950;46.042;14.472;2023-05-14T00:19:19;97981.47;;;13.32;90.86
9822;BME280;4950;46.042;14.472;2023-05-14T00:21:46;97977.97;;;13.25;91.25
9822;BME280;4950;46.042;14.472;2023-05-14T00:24:13;97980.41;;;13.27;91.11
9822;BME280;4950;46.042;14.472;2023-05-14T00:26:41;97973.38;;;13.27;91.01
9822;BME280;4950;46.042;14.472;2023-05-14T00:29:08;97967.00;;;13.30;91.35
9822;BME280;4950;46.042;14.472;2023-05-14T00:31:34;97965.75;;;13.26;91.24
9822;BME280;4950;46.042;14.472;2023-05-14T00:34:01;97958.94;;;13.24;91.25
9822;BME280;4950;46.042;14.472;2023-05-14T00:36:28;97959.91;;;13.23;91.14
9822;BME280;4950;46.042;14.472;2023-05-14T00:38:55;97964.31;;;13.23;91.39
9822;BME280;4950;46.042;14.472;2023-05-14T00:41:22;97963.34;;;13.24;91.39
9822;BME280;4950;46.042;14.472;2023-05-14T00:43:50;97960.34;;;13.27;91.34
9822;BME280;4950;46.042;14.472;2023-05-14T00:46:16;97960.53;;;13.26;91.51
9822;BME280;4950;46.042;14.472;2023-05-14T00:48:43;97965.75;;;13.26;91.50
9822;BME280;4950;46.042;14.472;2023-05-14T00:51:10;97960.09;;;13.22;91.61
9822;BME280;4950;46.042;14.472;2023-05-14T00:53:37;97964.31;;;13.23;91.83
9822;BME280;4950;46.042;14.472;2023-05-14T00:56:04;97960.09;;;13.22;91.75
9822;BME280;4950;46.042;14.472;2023-05-14T00:58:32;97961.72;;;13.23;91.71
9822;BME280;4950;46.042;14.472;2023-05-14T01:01:00;97955.53;;;13.24;92.14
9822;BME280;4950;46.042;14.472;2023-05-14T01:03:28;97950.91;;;13.26;92.01
9822;BME280;4950;46.042;14.472;2023-05-14T01:06:05;97945.72;;;13.26;91.88
9822;BME280;4950;46.042;14.472;2023-05-14T01:08:41;97951.53;;;13.28;92.11
9822;BME280;4950;46.042;14.472;2023-05-14T01:11:17;97944.88;;;13.26;92.15
9822;BME280;4950;46.042;14.472;2023-05-14T01:14:02;97934.22;;;13.20;92.21
9822;BME280;4950;46.042;14.472;2023-05-14T01:16:32;97939.44;;;13.20;92.62
9822;BME280;4950;46.042;14.472;2023-05-14T01:18:59;97928.00;;;13.21;92.84
9822;BME280;4950;46.042;14.472;2023-05-14T01:21:35;97919.63;;;13.26;92.64
9822;BME280;4950;46.042;14.472;2023-05-14T01:24:03;97919.44;;;13.28;93.09
9822;BME280;4950;46.042;14.472;2023-05-14T01:26:30;97917.84;;;13.27;92.83
9822;BME280;4950;46.042;14.472;2023-05-14T01:29:01;97922.88;;;13.28;92.96
9822;BME280;4950;46.042;14.472;2023-05-14T01:31:30;97917.41;;;13.23;92.91
9822;BME280;4950;46.042;14.472;2023-05-14T01:33:59;97922.63;;;13.23;92.73
9822;BME280;4950;46.042;14.472;2023-05-14T01:36:28;97927.03;;;13.22;92.79
9822;BME280;4950;46.042;14.472;2023-05-14T01:38:57;97916.41;;;13.24;92.93
9822;BME280;4950;46.042;14.472;2023-05-14T01:41:25;97911.38;;;13.22;92.73
9822;BME280;4950;46.042;14.472;2023-05-14T01:43:52;97908.78;;;13.22;92.92
9822;BME280;4950;46.042;14.472;2023-05-14T01:46:19;97901.16;;;13.21;92.77
9822;BME280;4950;46.042;14.472;2023-05-14T01:48:48;97900.53;;;13.19;93.19
9822;BME280;4950;46.042;14.472;2023-05-14T01:51:14;97897.50;;;13.15;93.23
9822;BME280;4950;46.042;14.472;2023-05-14T01:53:41;97907.13;;;13.15;93.35
9822;BME280;4950;46.042;14.472;2023-05-14T01:56:09;97905.13;;;13.17;93.17
9822;BME280;4950;46.042;14.472;2023-05-14T01:58:35;97898.69;;;13.13;93.21
9822;BME280;4950;46.042;14.472;2023-05-14T02:01:02;97899.84;;;13.10;93.33
9822;BME280;4950;46.042;14.472;2023-05-14T02:03:29;97901.47;;;13.11;93.47
9822;BME280;4950;46.042;14.472;2023-05-14T02:05:55;97899.31;;;13.15;93.12
9822;BME280;4950;46.042;14.472;2023-05-14T02:08:22;97893.91;;;13.16;92.88
9822;BME280;4950;46.042;14.472;2023-05-14T02:10:48;97886.63;;;13.12;93.01
9822;BME280;4950;46.042;14.472;2023-05-14T02:13:17;97889.06;;;13.13;93.12
9822;BME280;4950;46.042;14.472;2023-05-14T02:15:43;97877.84;;;13.13;93.27
9822;BME280;4950;46.042;14.472;2023-05-14T02:18:10;97872.63;;;13.13;92.96
9822;BME280;4950;46.042;14.472;2023-05-14T02:20:36;97867.78;;;13.10;93.21
9822;BME280;4950;46.042;14.472;2023-05-14T02:23:03;97865.16;;;13.10;92.90
9822;BME280;4950;46.042;14.472;2023-05-14T02:25:30;97861.34;;;13.06;93.08
9822;BME280;4950;46.042;14.472;2023-05-14T02:27:56;97854.13;;;13.08;93.43
9822;BME280;4950;46.042;14.472;2023-05-14T02:30:24;97854.91;;;13.01;93.46
9822;BME280;4950;46.042;14.472;2023-05-14T02:32:51;97850.31;;;13.03;93.44
9822;BME280;4950;46.042;14.472;2023-05-14T02:35:17;97854.91;;;13.01;93.25
9822;BME280;4950;46.042;14.472;2023-05-14T02:37:44;97850.88;;;12.99;93.21
9822;BME280;4950;46.042;14.472;2023-05-14T02:40:11;97842.63;;;12.95;93.39
9822;BME280;4950;46.042;14.472;2023-05-14T02:42:37;97851.63;;;12.93;93.39
9822;BME280;4950;46.042;14.472;2023-05-14T02:45:05;97852.81;;;12.90;93.88
9822;BME280;4950;46.042;14.472;2023-05-14T02:47:33;97858.41;;;12.87;93.81
9822;BME280;4950;46.042;14.472;2023-05-14T02:50:00;97850.38;;;12.89;94.08
9822;BME280;4950;46.042;14.472;2023-05-14T02:52:26;97850.78;;;12.86;93.94
9822;BME280;4950;46.042;14.472;2023-05-14T02:54:53;97842.16;;;12.85;94.03
9822;BME280;4950;46.042;14.472;2023-05-14T02:57:19;97846.38;;;12.86;93.94
9822;BME280;4950;46.042;14.472;2023-05-14T02:59:46;97840.34;;;12.86;93.97
9822;BME280;4950;46.042;14.472;2023-05-14T03:02:13;97840.19;;;12.87;94.16
9822;BME280;4950;46.042;14.472;2023-05-14T03:04:41;97837.31;;;12.82;93.70
9822;BME280;4950;46.042;14.472;2023-05-14T03:07:07;97830.91;;;12.84;94.13
9822;BME280;4950;46.042;14.472;2023-05-14T03:09:34;97827.16;;;12.87;94.05
9822;BME280;4950;46.042;14.472;2023-05-14T03:12:00;97815.91;;;12.87;94.05
9822;BME280;4950;46.042;14.472;2023-05-14T03:14:27;97815.09;;;12.86;93.95
9822;BME280;4950;46.042;14.472;2023-05-14T03:16:53;97811.53;;;12.87;94.07
9822;BME280;4950;46.042;14.472;2023-05-14T03:19:20;97816.50;;;12.89;93.93
9822;BME280;4950;46.042;14.472;2023-05-14T03:21:48;97816.72;;;12.87;93.84
9822;BME280;4950;46.042;14.472;2023-05-14T03:24:15;97812.50;;;12.86;94.00
9822;BME280;4950;46.042;14.472;2023-05-14T03:26:41;97812.06;;;12.82;94.08
9822;BME280;4950;46.042;14.472;2023-05-14T03:29:08;97815.44;;;12.76;94.10
9822;BME280;4950;46.042;14.472;2023-05-14T03:31:35;97819.44;;;12.79;94.17
9822;BME280;4950;46.042;14.472;2023-05-14T03:34:01;97818.47;;;12.80;94.17
9822;BME280;4950;46.042;14.472;2023-05-14T03:36:28;97816.84;;;12.79;93.95
9822;BME280;4950;46.042;14.472;2023-05-14T03:38:56;97817.44;;;12.74;94.26
9822;BME280;4950;46.042;14.472;2023-05-14T03:41:22;97823.88;;;12.78;94.22
9822;BME280;4950;46.042;14.472;2023-05-14T03:43:49;97819.44;;;12.79;93.89
9822;BME280;4950;46.042;14.472;2023-05-14T03:46:15;97817.84;;;12.78;94.07
9822;BME280;4950;46.042;14.472;2023-05-14T03:48:44;97824.25;;;12.75;94.09
9822;BME280;4950;46.042;14.472;2023-05-14T03:51:10;97826.25;;;12.73;94.01
9822;BME280;4950;46.042;14.472;2023-05-14T03:53:37;97829.84;;;12.72;94.34
9822;BME280;4950;46.042;14.472;2023-05-14T03:56:05;97826.63;;;12.70;94.27
9822;BME280;4950;46.042;14.472;2023-05-14T03:58:32;97832.59;;;12.64;94.45
9822;BME280;4950;46.042;14.472;2023-05-14T04:00:58;97829.72;;;12.59;94.89
9822;BME280;4950;46.042;14.472;2023-05-14T04:03:25;97828.94;;;12.58;95.02
9822;BME280;4950;46.042;14.472;2023-05-14T04:05:52;97830.16;;;12.62;95.09
9822;BME280;4950;46.042;14.472;2023-05-14T04:08:18;97830.59;;;12.66;94.99
9822;BME280;4950;46.042;14.472;2023-05-14T04:10:45;97828.59;;;12.68;94.77
9822;BME280;4950;46.042;14.472;2023-05-14T04:13:13;97832.41;;;12.66;94.68
9822;BME280;4950;46.042;14.472;2023-05-14T04:15:40;97832.19;;;12.67;95.09
9822;BME280;4950;46.042;14.472;2023-05-14T04:18:06;97833.41;;;12.71;94.91
9822;BME280;4950;46.042;14.472;2023-05-14T04:20:33;97830.03;;;12.71;94.72
9822;BME280;4950;46.042;14.472;2023-05-14T04:23:01;97829.41;;;12.69;94.71
9822;BME280;4950;46.042;14.472;2023-05-14T04:25:27;97829.41;;;12.69;94.92
9822;BME280;4950;46.042;14.472;2023-05-14T04:27:56;97827.59;;;12.69;94.80
9822;BME280;4950;46.042;14.472;2023-05-14T04:30:24;97827.41;;;12.71;94.85
9822;BME280;4950;46.042;14.472;2023-05-14T04:32:51;97826.44;;;12.72;94.75
9822;BME280;4950;46.042;14.472;2023-05-14T04:35:17;97824.81;;;12.71;94.61
9822;BME280;4950;46.042;14.472;2023-05-14T04:37:44;97825.44;;;12.73;94.54
9822;BME280;4950;46.042;14.472;2023-05-14T04:40:11;97822.19;;;12.71;94.53
9822;BME280;4950;46.042;14.472;2023-05-14T04:42:40;97809.19;;;12.71;94.61
9822;BME280;4950;46.042;14.472;2023-05-14T04:45:08;97810.63;;;12.73;94.79
9822;BME280;4950;46.042;14.472;2023-05-14T04:47:37;97806.97;;;12.68;94.73
9822;BME280;4950;46.042;14.472;2023-05-14T04:50:04;97800.75;;;12.69;94.52
9822;BME280;4950;46.042;14.472;2023-05-14T04:52:33;97799.78;;;12.70;94.71
9822;BME280;4950;46.042;14.472;2023-05-14T04:55:00;97794.94;;;12.67;94.77
9822;BME280;4950;46.042;14.472;2023-05-14T04:57:27;97795.31;;;12.63;94.52
9822;BME280;4950;46.042;14.472;2023-05-14T04:59:54;97789.69;;;12.60;94.92
9822;BME280;4950;46.042;14.472;2023-05-14T05:02:20;97790.47;;;12.60;94.69
9822;BME280;4950;46.042;14.472;2023-05-14T05:04:48;97777.47;;;12.60;94.55
9822;BME280;4950;46.042;14.472;2023-05-14T05:07:15;97772.25;;;12.60;94.75
9822;BME280;4950;46.042;14.472;2023-05-14T05:09:42;97774.50;;;12.63;94.94
9822;BME280;4950;46.042;14.472;2023-05-14T05:12:09;97767.63;;;12.56;94.80
9822;BME280;4950;46.042;14.472;2023-05-14T05:14:35;97772.41;;;12.52;95.10
9822;BME280;4950;46.042;14.472;2023-05-14T05:17:02;97770.41;;;12.54;95.32
9822;BME280;4950;46.042;14.472;2023-05-14T05:19:29;97769.41;;;12.55;95.25
9822;BME280;4950;46.042;14.472;2023-05-14T05:21:57;97757.38;;;12.54;95.17
9822;BME280;4950;46.042;14.472;2023-05-14T05:24:23;97752.97;;;12.55;95.17
9822;BME280;4950;46.042;14.472;2023-05-14T05:26:50;97755.41;;;12.56;95.40
9822;BME280;4950;46.042;14.472;2023-05-14T05:29:18;97752.78;;;12.56;95.27
9822;BME280;4950;46.042;14.472;2023-05-14T05:31:44;97753.00;;;12.61;95.35
9822;BME280;4950;46.042;14.472;2023-05-14T05:34:11;97754.44;;;12.64;95.30
9822;BME280;4950;46.042;14.472;2023-05-14T05:36:38;97756.03;;;12.65;95.17
9822;BME280;4950;46.042;14.472;2023-05-14T05:39:06;97746.81;;;12.62;95.15
9822;BME280;4950;46.042;14.472;2023-05-14T05:41:32;97756.44;;;12.62;95.39
9822;BME280;4950;46.042;14.472;2023-05-14T05:43:59;97751.00;;;12.57;95.68
9822;BME280;4950;46.042;14.472;2023-05-14T05:46:25;97748.81;;;12.60;95.58
9822;BME280;4950;46.042;14.472;2023-05-14T05:48:52;97747.44;;;12.64;95.48
9822;BME280;4950;46.042;14.472;2023-05-14T05:51:19;97746.81;;;12.62;95.22
9822;BME280;4950;46.042;14.472;2023-05-14T05:53:45;97751.06;;;12.63;95.29
9822;BME280;4950;46.042;14.472;2023-05-14T05:56:13;97746.63;;;12.64;95.10
9822;BME280;4950;46.042;14.472;2023-05-14T05:58:40;97746.81;;;12.62;95.55
9822;BME280;4950;46.042;14.472;2023-05-14T06:01:07;97747.63;;;12.63;95.61
9822;BME280;4950;46.042;14.472;2023-05-14T06:03:33;97748.44;;;12.63;95.13
9822;BME280;4950;46.042;14.472;2023-05-14T06:06:00;97750.84;;;12.65;95.46
9822;BME280;4950;46.042;14.472;2023-05-14T06:08:27;97753.66;;;12.63;95.29
9822;BME280;4950;46.042;14.472;2023-05-14T06:10:53;97756.63;;;12.60;95.57
9822;BME280;4950;46.042;14.472;2023-05-14T06:13:21;97753.41;;;12.58;95.70
9822;BME280;4950;46.042;14.472;2023-05-14T06:15:48;97756.44;;;12.62;95.45
9822;BME280;4950;46.042;14.472;2023-05-14T06:18:14;97747.25;;;12.66;95.36
9822;BME280;4950;46.042;14.472;2023-05-14T06:20:41;97748.47;;;12.70;95.19
9822;BME280;4950;46.042;14.472;2023-05-14T06:23:08;97746.66;;;12.71;95.27
9822;BME280;4950;46.042;14.472;2023-05-14T06:25:36;97746.50;;;12.72;95.31
9822;BME280;4950;46.042;14.472;2023-05-14T06:28:03;97738.66;;;12.72;95.01
9822;BME280;4950;46.042;14.472;2023-05-14T06:30:31;97736.06;;;12.72;95.14
9822;BME280;4950;46.042;14.472;2023-05-14T06:32:57;97734.25;;;12.73;94.48
9822;BME280;4950;46.042;14.472;2023-05-14T06:35:24;97733.66;;;12.71;94.68
9822;BME280;4950;46.042;14.472;2023-05-14T06:37:50;97733.63;;;12.64;95.01
9822;BME280;4950;46.042;14.472;2023-05-14T06:40:18;97723.03;;;12.66;95.27
9822;BME280;4950;46.042;14.472;2023-05-14T06:42:44;97717.41;;;12.69;94.90
9822;BME280;4950;46.042;14.472;2023-05-14T06:45:11;97713.22;;;12.68;94.60
9822;BME280;4950;46.042;14.472;2023-05-14T06:47:39;97717.41;;;12.69;94.81
9822;BME280;4950;46.042;14.472;2023-05-14T06:50:06;97713.22;;;12.68;94.80
9822;BME280;4950;46.042;14.472;2023-05-14T06:52:32;97726.97;;;12.61;94.76
9822;BME280;4950;46.042;14.472;2023-05-14T06:54:59;97726.41;;;12.66;94.57
9822;BME280;4950;46.042;14.472;2023-05-14T06:57:26;97719.41;;;12.67;94.92
9822;BME280;4950;46.042;14.472;2023-05-14T06:59:52;97718.00;;;12.64;94.78
9822;BME280;4950;46.042;14.472;2023-05-14T07:02:19;97707.56;;;12.64;94.84
9822;BME280;4950;46.042;14.472;2023-05-14T07:04:47;97701.56;;;12.63;95.15
9822;BME280;4950;46.042;14.472;2023-05-14T07:07:13;97697.97;;;12.64;94.92
9822;BME280;4950;46.042;14.472;2023-05-14T07:09:44;97698.19;;;12.70;94.83
9822;BME280;4950;46.042;14.472;2023-05-14T07:12:11;97694.22;;;12.74;94.79
9822;BME280;4950;46.042;14.472;2023-05-14T07:14:37;97687.19;;;12.74;94.84
9822;BME280;4950;46.042;14.472;2023-05-14T07:17:04;97689.41;;;12.77;94.75
9822;BME280;4950;46.042;14.472;2023-05-14T07:19:31;97690.81;;;12.80;94.74
9822;BME280;4950;46.042;14.472;2023-05-14T07:21:59;97688.84;;;12.82;94.50
9822;BME280;4950;46.042;14.472;2023-05-14T07:24:25;97681.81;;;12.82;94.42
9822;BME280;4950;46.042;14.472;2023-05-14T07:26:52;97671.97;;;12.78;94.57
9822;BME280;4950;46.042;14.472;2023-05-14T07:29:21;97668.78;;;12.76;94.67
9822;BME280;4950;46.042;14.472;2023-05-14T07:31:49;97673.38;;;12.80;94.97
9822;BME280;4950;46.042;14.472;2023-05-14T07:34:16;97674.81;;;12.83;94.97
9822;BME280;4950;46.042;14.472;2023-05-14T07:36:42;97665.22;;;12.90;94.94
9822;BME280;4950;46.042;14.472;2023-05-14T07:39:10;97668.84;;;12.89;95.14
9822;BME280;4950;46.042;14.472;2023-05-14T07:41:37;97668.44;;;12.92;95.33
9822;BME280;4950;46.042;14.472;2023-05-14T07:44:04;97667.63;;;12.92;94.94
9822;BME280;4950;46.042;14.472;2023-05-14T07:46:32;97667.44;;;12.93;95.08
9822;BME280;4950;46.042;14.472;2023-05-14T07:48:58;97662.03;;;12.95;95.00
9822;BME280;4950;46.042;14.472;2023-05-14T07:51:25;97656.63;;;12.96;94.99
9822;BME280;4950;46.042;14.472;2023-05-14T07:53:52;97649.63;;;12.97;95.09
9822;BME280;4950;46.042;14.472;2023-05-14T07:56:21;97651.03;;;12.99;94.94
9822;BME280;4950;46.042;14.472;2023-05-14T07:58:47;97652.44;;;13.02;95.03
9822;BME280;4950;46.042;14.472;2023-05-14T08:01:14;97642.63;;;13.04;94.89
9822;BME280;4950;46.042;14.472;2023-05-14T08:03:40;97644.84;;;13.07;94.88
9822;BME280;4950;46.042;14.472;2023-05-14T08:06:07;97641.22;;;13.08;95.04
9822;BME280;4950;46.042;14.472;2023-05-14T08:08:34;97635.25;;;13.14;95.60
9822;BME280;4950;46.042;14.472;2023-05-14T08:11:01;97640.66;;;13.19;94.96
9822;BME280;4950;46.042;14.472;2023-05-14T08:13:29;97636.47;;;13.18;94.77
9822;BME280;4950;46.042;14.472;2023-05-14T08:15:56;97633.03;;;13.18;94.25
9822;BME280;4950;46.042;14.472;2023-05-14T08:18:23;97627.63;;;13.19;94.17
9822;BME280;4950;46.042;14.472;2023-05-14T08:20:49;97637.06;;;13.20;94.51
9822;BME280;4950;46.042;14.472;2023-05-14T08:23:16;97630.66;;;13.23;94.20
9822;BME280;4950;46.042;14.472;2023-05-14T08:25:43;97632.47;;;13.29;94.26
9822;BME280;4950;46.042;14.472;2023-05-14T08:28:09;97626.28;;;13.30;94.23
9822;BME280;4950;46.042;14.472;2023-05-14T08:30:37;97619.28;;;13.31;93.99
9822;BME280;4950;46.042;14.472;2023-05-14T08:33:04;97620.06;;;13.31;94.12
9822;BME280;4950;46.042;14.472;2023-05-14T08:35:31;97609.66;;;13.38;94.15
9822;BME280;4950;46.042;14.472;2023-05-14T08:37:57;97614.88;;;13.38;94.12
9822;BME280;4950;46.042;14.472;2023-05-14T08:40:24;97613.06;;;13.38;94.21
9822;BME280;4950;46.042;14.472;2023-05-14T08:42:51;97609.06;;;13.42;94.18
9822;BME280;4950;46.042;14.472;2023-05-14T08:45:20;97598.84;;;13.48;94.12
9822;BME280;4950;46.042;14.472;2023-05-14T08:47:51;97595.44;;;13.54;94.11
9822;BME280;4950;46.042;14.472;2023-05-14T08:50:18;97591.63;;;13.56;94.19
9822;BME280;4950;46.042;14.472;2023-05-14T08:52:45;97585.78;;;13.61;94.20
9822;BME280;4950;46.042;14.472;2023-05-14T08:55:12;97582.41;;;13.67;94.40
9822;BME280;4950;46.042;14.472;2023-05-14T08:57:39;97578.38;;;13.71;94.33
9822;BME280;4950;46.042;14.472;2023-05-14T09:00:07;97574.56;;;13.74;94.43
9822;BME280;4950;46.042;14.472;2023-05-14T09:02:36;97574.53;;;13.80;94.88
9822;BME280;4950;46.042;14.472;2023-05-14T09:05:05;97573.16;;;13.85;94.61
9822;BME280;4950;46.042;14.472;2023-05-14T09:07:33;97566.53;;;13.89;94.34
9822;BME280;4950;46.042;14.472;2023-05-14T09:10:01;97569.31;;;13.94;94.11
9822;BME280;4950;46.042;14.472;2023-05-14T09:12:29;97567.53;;;13.94;93.54
9822;BME280;4950;46.042;14.472;2023-05-14T09:14:55;97569.50;;;13.99;92.77
9822;BME280;4950;46.042;14.472;2023-05-14T09:17:24;97573.13;;;13.98;92.45
9822;BME280;4950;46.042;14.472;2023-05-14T09:19:51;97580.16;;;13.97;91.95
9822;BME280;4950;46.042;14.472;2023-05-14T09:22:19;97582.38;;;14.00;91.88
9822;BME280;4950;46.042;14.472;2023-05-14T09:25:00;97572.53;;;14.02;91.36
9822;BME280;4950;46.042;14.472;2023-05-14T09:27:29;97566.88;;;14.06;91.02
9822;BME280;4950;46.042;14.472;2023-05-14T09:30:03;97575.91;;;14.10;90.89
9822;BME280;4950;46.042;14.472;2023-05-14T09:32:35;97576.31;;;14.13;91.07
9822;BME280;4950;46.042;14.472;2023-05-14T09:35:09;97571.28;;;14.12;90.95
9822;BME280;4950;46.042;14.472;2023-05-14T09:37:40;97565.06;;;14.13;90.86
9822;BME280;4950;46.042;14.472;2023-05-14T09:40:07;97551.81;;;14.14;90.90
9822;BME280;4950;46.042;14.472;2023-05-14T09:42:34;97546.41;;;14.16;90.98
9822;BME280;4950;46.042;14.472;2023-05-14T09:45:01;97552.41;;;14.16;90.88
9822;BME280;4950;46.042;14.472;2023-05-14T09:47:29;97562.25;;;14.08;89.90
9822;BME280;4950;46.042;14.472;2023-05-14T09:49:55;97561.06;;;14.10;90.07
9822;BME280;4950;46.042;14.472;2023-05-14T09:52:22;97553.44;;;14.09;89.70
9822;BME280;4950;46.042;14.472;2023-05-14T09:54:50;97543.19;;;14.07;89.21
9822;BME280;4950;46.042;14.472;2023-05-14T09:57:17;97540.38;;;14.09;89.58
9822;BME280;4950;46.042;14.472;2023-05-14T09:59:44;97538.16;;;14.12;89.83
9822;BME280;4950;46.042;14.472;2023-05-14T10:02:15;97528.31;;;14.14;89.68
9822;BME280;4950;46.042;14.472;2023-05-14T10:04:47;97515.28;;;14.14;89.87
9822;BME280;4950;46.042;14.472;2023-05-14T10:07:16;97519.28;;;14.17;90.04
9822;BME280;4950;46.042;14.472;2023-05-14T10:09:45;97505.81;;;14.20;90.04
9822;BME280;4950;46.042;14.472;2023-05-14T10:12:15;97507.41;;;14.21;90.10
9822;BME280;4950;46.042;14.472;2023-05-14T10:14:46;97501.97;;;14.22;90.29
9822;BME280;4950;46.042;14.472;2023-05-14T10:17:18;97499.16;;;14.24;90.31
9822;BME280;4950;46.042;14.472;2023-05-14T10:19:51;97487.31;;;14.21;90.33
9822;BME280;4950;46.042;14.472;2023-05-14T10:22:21;97483.91;;;14.21;90.90
9822;BME280;4950;46.042;14.472;2023-05-14T10:24:49;97484.28;;;14.25;91.05
9822;BME280;4950;46.042;14.472;2023-05-14T10:27:19;97479.88;;;14.25;90.82
9822;BME280;4950;46.042;14.472;2023-05-14T10:29:50;97483.31;;;14.26;91.38
9822;BME280;4950;46.042;14.472;2023-05-14T10:32:19;97485.47;;;14.29;91.44
9822;BME280;4950;46.042;14.472;2023-05-14T10:34:47;97481.06;;;14.29;91.49
9822;BME280;4950;46.042;14.472;2023-05-14T10:37:14;97486.06;;;14.31;91.52
9822;BME280;4950;46.042;14.472;2023-05-14T10:39:43;97490.06;;;14.33;91.50
9822;BME280;4950;46.042;14.472;2023-05-14T10:42:11;97495.72;;;14.30;91.70
9822;BME280;4950;46.042;14.472;2023-05-14T10:44:46;97493.13;;;14.30;91.77
9822;BME280;4950;46.042;14.472;2023-05-14T10:47:13;97490.91;;;14.34;91.68
9822;BME280;4950;46.042;14.472;2023-05-14T10:49:41;97497.91;;;14.33;91.70
9822;BME280;4950;46.042;14.472;2023-05-14T10:52:09;97499.72;;;14.33;91.58
9822;BME280;4950;46.042;14.472;2023-05-14T10:54:37;97494.31;;;14.34;91.44
9822;BME280;4950;46.042;14.472;2023-05-14T10:57:09;97490.06;;;14.33;91.98
9822;BME280;4950;46.042;14.472;2023-05-14T10:59:41;97488.09;;;14.35;92.13
9822;BME280;4950;46.042;14.472;2023-05-14T11:02:19;97473.81;;;14.38;91.90
9822;BME280;4950;46.042;14.472;2023-05-14T11:04:57;97453.31;;;14.35;92.67
9822;BME280;4950;46.042;14.472;2023-05-14T11:07:27;97457.34;;;14.37;92.77
9822;BME280;4950;46.042;14.472;2023-05-14T11:09:59;97455.72;;;14.36;93.28
9822;BME280;4950;46.042;14.472;2023-05-14T11:12:27;97464.94;;;14.39;93.52
9822;BME280;4950;46.042;14.472;2023-05-14T11:14:55;97456.50;;;14.37;93.49
9822;BME280;4950;46.042;14.472;2023-05-14T11:17:23;97453.09;;;14.36;93.48
9822;BME280;4950;46.042;14.472;2023-05-14T11:19:50;97458.13;;;14.38;93.18
9822;BME280;4950;46.042;14.472;2023-05-14T11:22:16;97458.13;;;14.38;92.90
9822;BME280;4950;46.042;14.472;2023-05-14T11:24:43;97464.78;;;14.34;92.60
9822;BME280;4950;46.042;14.472;2023-05-14T11:27:10;97458.75;;;14.33;92.03
9822;BME280;4950;46.042;14.472;2023-05-14T11:29:37;97467.78;;;14.31;92.13
9822;BME280;4950;46.042;14.472;2023-05-14T11:32:06;97463.16;;;14.33;92.02
9822;BME280;4950;46.042;14.472;2023-05-14T11:34:32;97459.97;;;14.31;91.96
9822;BME280;4950;46.042;14.472;2023-05-14T11:37:02;97461.00;;;14.30;91.58
9822;BME280;4950;46.042;14.472;2023-05-14T11:39:29;97458.56;;;14.28;91.35
9822;BME280;4950;46.042;14.472;2023-05-14T11:41:57;97464.38;;;14.30;91.80
9822;BME280;4950;46.042;14.472;2023-05-14T11:44:24;97475.47;;;14.26;91.38
9822;BME280;4950;46.042;14.472;2023-05-14T11:46:54;97481.47;;;14.26;91.57
9822;BME280;4950;46.042;14.472;2023-05-14T11:49:22;97485.53;;;14.22;91.95
9822;BME280;4950;46.042;14.472;2023-05-14T11:51:49;97489.72;;;14.23;92.06
9822;BME280;4950;46.042;14.472;2023-05-14T11:54:16;97488.94;;;14.22;92.18
9822;BME280;4950;46.042;14.472;2023-05-14T11:56:48;97488.34;;;14.20;92.33
9822;BME280;4950;46.042;14.472;2023-05-14T11:59:15;97484.34;;;14.18;92.19
9822;BME280;4950;46.042;14.472;2023-05-14T12:01:42;97496.00;;;14.09;91.95
9822;BME280;4950;46.042;14.472;2023-05-14T12:04:09;97501.63;;;14.06;91.93
9822;BME280;4950;46.042;14.472;2023-05-14T12:06:37;97503.25;;;14.07;91.65
9822;BME280;4950;46.042;14.472;2023-05-14T12:09:04;97506.84;;;14.06;92.42
9822;BME280;4950;46.042;14.472;2023-05-14T12:11:31;97503.44;;;14.05;91.87
9822;BME280;4950;46.042;14.472;2023-05-14T12:13:58;97496.84;;;14.02;91.97
9822;BME280;4950;46.042;14.472;2023-05-14T12:16:29;97493.41;;;14.02;92.32
9822;BME280;4950;46.042;14.472;2023-05-14T12:18:58;97496.44;;;13.99;92.24
9822;BME280;4950;46.042;14.472;2023-05-14T12:21:25;97500.66;;;13.93;92.00
9822;BME280;4950;46.042;14.472;2023-05-14T12:23:57;97499.06;;;13.86;92.92
9822;BME280;4950;46.042;14.472;2023-05-14T12:26:24;97492.03;;;13.93;92.72
9822;BME280;4950;46.042;14.472;2023-05-14T12:28:56;97502.06;;;13.96;92.34
9822;BME280;4950;46.042;14.472;2023-05-14T12:31:27;97503.06;;;13.95;92.40
9822;BME280;4950;46.042;14.472;2023-05-14T12:33:53;97497.66;;;13.90;92.69
9822;BME280;4950;46.042;14.472;2023-05-14T12:36:20;97501.88;;;13.84;93.12
9822;BME280;4950;46.042;14.472;2023-05-14T12:38:47;97500.25;;;13.90;93.03
9822;BME280;4950;46.042;14.472;2023-05-14T12:41:15;97483.81;;;13.89;93.49
9822;BME280;4950;46.042;14.472;2023-05-14T12:43:43;97490.84;;;13.89;93.51
9822;BME280;4950;46.042;14.472;2023-05-14T12:46:10;97500.88;;;13.92;93.78
9822;BME280;4950;46.042;14.472;2023-05-14T12:48:36;97491.06;;;13.87;93.43
9822;BME280;4950;46.042;14.472;2023-05-14T12:51:03;97492.88;;;13.87;93.75
9822;BME280;4950;46.042;14.472;2023-05-14T12:53:30;97492.03;;;13.86;93.53
9822;BME280;4950;46.042;14.472;2023-05-14T12:55:57;97485.44;;;13.83;93.47
9822;BME280;4950;46.042;14.472;2023-05-14T12:58:25;97499.47;;;13.82;93.47
9822;BME280;4950;46.042;14.472;2023-05-14T13:00:52;97505.09;;;13.86;93.24
9822;BME280;4950;46.042;14.472;2023-05-14T13:03:18;97501.47;;;13.94;93.05
9822;BME280;4950;46.042;14.472;2023-05-14T13:05:45;97492.03;;;13.93;93.32
9822;BME280;4950;46.042;14.472;2023-05-14T13:08:12;97501.25;;;13.95;92.97
9822;BME280;4950;46.042;14.472;2023-05-14T13:10:42;97502.88;;;13.96;93.08
9822;BME280;4950;46.042;14.472;2023-05-14T13:13:08;97490.44;;;13.98;93.21